Time;durP1;ratioP1;P1;durP2;ratioP2;P2;SDS_P1;SDS_P2;PMS_P1;PMS_P2;Temp;Humidity;BMP_temperature;BMP_pressure;BME280_temperature;BME280_humidity;BME280_pressure;Samples;Min_cycle;Max_cycle;Signal;HPM_P1;HPM_P2
2023/11/22 00:01:41;;;;;;;26.87;16.10;;;8.20;99.90;;;;;;5065631;28;20431;-89
2023/11/22 00:04:07;;;;;;;25.57;16.00;;;8.10;99.90;;;;;;5074637;28;20216;-87
2023/11/22 00:06:32;;;;;;;21.70;15.30;;;8.00;99.90;;;;;;5073431;28;20222;-87
2023/11/22 00:08:58;;;;;;;22.63;16.17;;;8.00;99.90;;;;;;5074874;28;20178;-86
2023/11/22 00:11:24;;;;;;;21.77;15.60;;;7.90;99.90;;;;;;5066117;28;20186;-89
2023/11/22 00:13:55;;;;;;;21.00;15.07;;;7.90;99.90;;;;;;5076124;28;20204;-87
2023/11/22 00:16:20;;;;;;;18.10;14.03;;;7.80;99.90;;;;;;5074650;28;20224;-86
2023/11/22 00:18:46;;;;;;;20.03;14.77;;;7.80;99.90;;;;;;5070968;28;20436;-86
2023/11/22 00:21:12;;;;;;;24.07;16.17;;;7.70;99.90;;;;;;5074850;28;20592;-87
2023/11/22 00:23:37;;;;;;;23.10;15.87;;;7.70;99.90;;;;;;5074365;28;20190;-87
2023/11/22 00:26:05;;;;;;;24.10;16.83;;;7.60;1.00;;;;;;5074557;28;20216;-87
2023/11/22 00:28:30;;;;;;;22.13;14.55;;;7.60;1.00;;;;;;5076245;28;20185;-87
2023/11/22 00:30:56;;;;;;;21.03;15.03;;;7.60;1.00;;;;;;5072915;28;20189;-85
2023/11/22 00:33:22;;;;;;;24.30;15.53;;;7.60;1.00;;;;;;5073501;28;20192;-85
2023/11/22 00:35:47;;;;;;;22.90;14.50;;;7.60;1.00;;;;;;5075223;28;20747;-85
2023/11/22 00:38:13;;;;;;;22.43;15.53;;;7.70;1.00;;;;;;5067874;28;20194;-87
2023/11/22 00:40:38;;;;;;;23.70;16.03;;;7.70;1.00;;;;;;5070912;28;20201;-86
2023/11/22 00:43:04;;;;;;;20.20;14.70;;;7.70;1.00;;;;;;5085614;28;20231;-86
2023/11/22 00:45:29;;;;;;;22.70;14.67;;;7.70;1.00;;;;;;5070173;28;20304;-86
2023/11/22 00:47:55;;;;;;;25.73;15.93;;;7.70;1.00;;;;;;5074349;28;20197;-87
2023/11/22 00:50:21;;;;;;;22.60;15.27;;;7.80;1.00;;;;;;5080461;28;20189;-87
2023/11/22 00:52:47;;;;;;;24.63;14.30;;;7.80;1.00;;;;;;5071198;28;20189;-86
2023/11/22 00:55:13;;;;;;;23.08;14.60;;;7.80;1.00;;;;;;5074478;28;20216;-86
2023/11/22 00:57:38;;;;;;;22.90;16.20;;;7.80;1.00;;;;;;5079435;28;20192;-88
2023/11/22 01:00:07;;;;;;;21.10;14.90;;;7.80;1.00;;;;;;5069351;28;20246;-87
2023/11/22 01:02:33;;;;;;;20.40;14.15;;;7.80;1.00;;;;;;5064952;28;20190;-87
2023/11/22 01:04:59;;;;;;;22.43;15.63;;;7.90;1.00;;;;;;5075273;28;20213;-87
2023/11/22 01:07:24;;;;;;;22.30;15.33;;;7.80;1.00;;;;;;5074284;28;20177;-87
2023/11/22 01:09:50;;;;;;;20.73;14.50;;;7.80;1.00;;;;;;5074990;28;20201;-87
2023/11/22 01:12:15;;;;;;;21.77;15.57;;;7.80;1.00;;;;;;5076197;28;20182;-87
2023/11/22 01:14:41;;;;;;;20.17;13.10;;;7.80;1.00;;;;;;5077491;28;20673;-87
2023/11/22 01:17:06;;;;;;;22.80;14.70;;;7.80;1.00;;;;;;5079993;28;20244;-87
2023/11/22 01:19:32;;;;;;;20.10;14.57;;;7.70;1.00;;;;;;5074622;28;20267;-87
2023/11/22 01:21:57;;;;;;;18.90;13.00;;;7.70;1.00;;;;;;5074285;28;20193;-87
2023/11/22 01:24:23;;;;;;;20.00;14.17;;;7.70;1.00;;;;;;5074299;28;20235;-86
2023/11/22 01:26:49;;;;;;;20.87;13.90;;;7.70;1.00;;;;;;5074597;28;20346;-87
2023/11/22 01:29:14;;;;;;;22.13;13.97;;;7.70;1.00;;;;;;5073980;28;20181;-87
2023/11/22 01:31:41;;;;;;;22.03;14.20;;;7.70;1.00;;;;;;5070016;28;20682;-87
2023/11/22 01:34:07;;;;;;;20.20;14.83;;;7.80;1.00;;;;;;5079223;28;20178;-87
2023/11/22 01:36:33;;;;;;;21.20;13.30;;;7.80;1.00;;;;;;5073349;28;20999;-87
2023/11/22 01:38:58;;;;;;;18.27;12.73;;;7.80;1.00;;;;;;5071328;28;20181;-87
2023/11/22 01:41:24;;;;;;;21.07;13.73;;;7.70;1.00;;;;;;5073105;28;20186;-86
2023/11/22 01:43:50;;;;;;;18.20;13.50;;;7.70;1.00;;;;;;5075225;28;20548;-86
2023/11/22 01:46:23;;;;;;;19.53;13.73;;;7.70;1.00;;;;;;5078983;28;20213;-87
2023/11/22 01:48:49;;;;;;;24.52;13.93;;;7.60;1.00;;;;;;5071621;28;20811;-87
2023/11/22 01:51:15;;;;;;;21.15;14.23;;;7.60;1.00;;;;;;5075839;28;20268;-87
2023/11/22 01:53:41;;;;;;;19.13;13.37;;;7.50;1.00;;;;;;5073914;28;20213;-86
2023/11/22 01:56:09;;;;;;;18.73;13.27;;;7.50;1.00;;;;;;5076316;28;20221;-88
2023/11/22 01:58:35;;;;;;;19.40;12.40;;;7.50;1.00;;;;;;5065201;28;20206;-86
2023/11/22 02:01:02;;;;;;;21.90;14.57;;;7.50;1.00;;;;;;5075709;28;20186;-87
2023/11/22 02:03:29;;;;;;;24.13;15.10;;;7.50;1.00;;;;;;5076657;28;20941;-87
2023/11/22 02:05:54;;;;;;;19.15;13.50;;;7.40;1.00;;;;;;5070798;28;20545;-87
2023/11/22 02:08:20;;;;;;;23.77;13.93;;;7.40;1.00;;;;;;5076419;28;20185;-87
2023/11/22 02:10:49;;;;;;;21.67;15.07;;;7.40;1.00;;;;;;5072615;28;20185;-86
2023/11/22 02:13:14;;;;;;;22.80;14.30;;;7.40;1.00;;;;;;5073182;28;20177;-87
2023/11/22 02:15:40;;;;;;;21.83;14.43;;;7.40;1.00;;;;;;5064453;28;20223;-87
2023/11/22 02:18:06;;;;;;;21.47;13.33;;;7.40;1.00;;;;;;5073870;28;20545;-87
2023/11/22 02:20:32;;;;;;;20.00;14.60;;;7.40;1.00;;;;;;5073932;28;20726;-87
2023/11/22 02:23:01;;;;;;;18.30;12.80;;;7.40;1.00;;;;;;5073828;28;20216;-86
2023/11/22 02:25:26;;;;;;;22.67;14.73;;;7.40;1.00;;;;;;5072621;28;20220;-88
2023/11/22 02:27:52;;;;;;;19.00;14.43;;;7.30;1.00;;;;;;5076231;28;20182;-87
2023/11/22 02:30:18;;;;;;;21.87;13.67;;;7.30;1.00;;;;;;5093921;28;20189;-87
2023/11/22 02:32:44;;;;;;;18.63;13.50;;;7.20;1.00;;;;;;5075035;28;20188;-87
2023/11/22 02:35:10;;;;;;;21.55;15.23;;;7.20;1.00;;;;;;5073183;28;20700;-86
2023/11/22 02:37:35;;;;;;;21.93;16.00;;;7.10;1.00;;;;;;5083276;28;20181;-87
2023/11/22 02:40:20;;;;;;;23.47;16.00;;;7.10;1.00;;;;;;5071765;28;20523;-87
2023/11/22 02:42:51;;;;;;;25.08;14.70;;;7.10;1.00;;;;;;5076165;28;20193;-87
2023/11/22 02:45:18;;;;;;;22.50;14.73;;;7.00;1.00;;;;;;5072711;28;20240;-87
2023/11/22 02:47:44;;;;;;;20.52;15.07;;;7.00;1.00;;;;;;5074342;28;20191;-87
2023/11/22 02:50:11;;;;;;;25.85;17.08;;;6.90;1.00;;;;;;5073577;28;20189;-87
2023/11/22 02:52:37;;;;;;;21.92;14.80;;;6.90;1.00;;;;;;5071595;28;20179;-86
2023/11/22 02:55:04;;;;;;;25.50;16.65;;;6.80;1.00;;;;;;5070004;28;20215;-84
2023/11/22 02:57:33;;;;;;;22.35;15.55;;;6.70;1.00;;;;;;5072954;28;20177;-87
2023/11/22 02:59:59;;;;;;;25.77;16.88;;;6.60;1.00;;;;;;5082927;28;20194;-87
2023/11/22 03:02:25;;;;;;;27.80;15.57;;;6.60;1.00;;;;;;5064723;28;20193;-87
2023/11/22 03:04:51;;;;;;;25.40;15.88;;;6.50;1.00;;;;;;5070147;28;20211;-85
2023/11/22 03:07:17;;;;;;;21.63;15.30;;;6.50;1.00;;;;;;5070097;28;20189;-86
2023/11/22 03:09:44;;;;;;;26.27;16.43;;;6.40;1.00;;;;;;5070482;28;20177;-87
2023/11/22 03:12:12;;;;;;;28.40;18.02;;;6.30;1.00;;;;;;5064594;28;20469;-87
2023/11/22 03:14:38;;;;;;;27.17;17.13;;;6.30;1.00;;;;;;5065065;28;20573;-87
2023/11/22 03:17:04;;;;;;;29.48;17.13;;;6.30;1.00;;;;;;5080926;28;20231;-86
2023/11/22 03:19:30;;;;;;;27.77;16.70;;;6.30;1.00;;;;;;5072129;28;20188;-87
2023/11/22 03:21:56;;;;;;;35.67;20.33;;;6.20;1.00;;;;;;5073740;28;20193;-86
2023/11/22 03:24:22;;;;;;;35.90;21.30;;;6.20;1.00;;;;;;5068598;28;20280;-87
2023/11/22 03:26:47;;;;;;;37.10;21.92;;;6.30;1.00;;;;;;5067507;28;20475;-87
2023/11/22 03:29:16;;;;;;;43.80;25.20;;;6.40;1.00;;;;;;5079817;28;20196;-87
2023/11/22 03:31:42;;;;;;;42.53;24.38;;;6.40;1.00;;;;;;5072788;28;20639;-87
2023/11/22 03:34:07;;;;;;;36.43;21.27;;;6.40;1.00;;;;;;5074042;28;20185;-86
2023/11/22 03:36:33;;;;;;;37.00;22.27;;;6.50;1.00;;;;;;5072249;28;20528;-87
2023/11/22 03:38:59;;;;;;;36.90;21.97;;;6.50;1.00;;;;;;5074505;28;20212;-86
2023/11/22 03:41:24;;;;;;;42.17;22.90;;;6.60;1.00;;;;;;5065942;28;20806;-86
2023/11/22 03:43:50;;;;;;;36.67;20.87;;;6.60;1.00;;;;;;5071621;28;20185;-87
2023/11/22 03:46:15;;;;;;;49.13;23.40;;;6.70;1.00;;;;;;5078582;28;20221;-86
2023/11/22 03:48:41;;;;;;;46.20;23.33;;;6.70;1.00;;;;;;5073054;28;20560;-86
2023/11/22 03:51:06;;;;;;;38.20;22.73;;;6.70;1.00;;;;;;5070094;28;20211;-86
2023/11/22 03:53:32;;;;;;;41.23;21.83;;;6.60;1.00;;;;;;5068225;28;20283;-87
2023/11/22 03:55:58;;;;;;;45.23;24.60;;;6.60;1.00;;;;;;5070245;28;20205;-85
2023/11/22 03:58:24;;;;;;;40.30;24.92;;;6.60;1.00;;;;;;5070032;28;20185;-87
2023/11/22 04:00:52;;;;;;;42.97;23.17;;;6.50;1.00;;;;;;5073565;28;20184;-87
2023/11/22 04:03:18;;;;;;;42.70;22.95;;;6.50;1.00;;;;;;5074871;28;20189;-87
2023/11/22 04:05:44;;;;;;;36.85;22.20;;;6.50;1.00;;;;;;5073432;28;20223;-87
2023/11/22 04:08:09;;;;;;;38.47;23.10;;;6.40;1.00;;;;;;5074495;28;20178;-87
2023/11/22 04:10:35;;;;;;;41.87;22.70;;;6.40;1.00;;;;;;5081018;28;20221;-85
2023/11/22 04:13:01;;;;;;;40.87;24.73;;;6.40;1.00;;;;;;5075315;28;20292;-88
2023/11/22 04:15:26;;;;;;;43.67;24.70;;;6.40;1.00;;;;;;5074219;28;20303;-87
2023/11/22 04:17:54;;;;;;;52.60;26.50;;;6.50;1.00;;;;;;5077101;28;20181;-87
2023/11/22 04:20:20;;;;;;;45.50;26.65;;;6.50;1.00;;;;;;5075532;28;20272;-87
2023/11/22 04:22:46;;;;;;;53.22;28.20;;;6.50;1.00;;;;;;5084817;28;20185;-87
2023/11/22 04:25:14;;;;;;;53.57;28.70;;;6.60;1.00;;;;;;5074667;28;20216;-87
2023/11/22 04:27:41;;;;;;;56.22;28.75;;;6.60;1.00;;;;;;5075446;28;20178;-87
2023/11/22 04:30:13;;;;;;;52.88;28.98;;;6.70;1.00;;;;;;5076496;28;20594;-86
2023/11/22 04:32:39;;;;;;;48.97;26.02;;;6.60;1.00;;;;;;5074821;28;20192;-88
2023/11/22 04:35:05;;;;;;;48.93;26.70;;;6.60;1.00;;;;;;5077076;28;20185;-87
2023/11/22 04:37:32;;;;;;;58.17;28.25;;;6.60;1.00;;;;;;5073873;28;20186;-87
2023/11/22 04:39:58;;;;;;;49.03;26.35;;;6.60;1.00;;;;;;5075470;28;20272;-87
2023/11/22 04:42:24;;;;;;;51.80;26.60;;;6.60;1.00;;;;;;5068744;28;20205;-87
2023/11/22 04:44:50;;;;;;;52.30;26.60;;;6.60;1.00;;;;;;5081124;28;20189;-87
2023/11/22 04:47:15;;;;;;;43.70;24.00;;;6.60;1.00;;;;;;5070673;28;20182;-88
2023/11/22 04:49:41;;;;;;;44.73;25.10;;;6.60;1.00;;;;;;5073589;28;20665;-87
2023/11/22 04:52:06;;;;;;;42.63;25.73;;;6.60;1.00;;;;;;5077321;28;20178;-87
2023/11/22 04:54:32;;;;;;;45.43;26.27;;;6.60;1.00;;;;;;5075361;28;20227;-87
2023/11/22 04:56:58;;;;;;;42.65;25.48;;;6.60;1.00;;;;;;5069971;28;20634;-87
2023/11/22 04:59:24;;;;;;;50.53;26.73;;;6.50;1.00;;;;;;5075720;28;20244;-86
2023/11/22 05:01:49;;;;;;;44.70;26.30;;;6.50;1.00;;;;;;5074938;28;20269;-86
2023/11/22 05:04:15;;;;;;;48.10;25.20;;;6.50;1.00;;;;;;5076751;28;20189;-87
2023/11/22 05:06:40;;;;;;;45.13;26.70;;;6.50;1.00;;;;;;5078027;28;20213;-87
2023/11/22 05:09:06;;;;;;;40.80;25.57;;;6.60;1.00;;;;;;5075940;28;20196;-87
2023/11/22 05:11:31;;;;;;;38.53;24.40;;;6.60;1.00;;;;;;5076019;28;20219;-87
2023/11/22 05:13:57;;;;;;;42.77;23.07;;;6.70;1.00;;;;;;5077639;28;20181;-86
2023/11/22 05:16:23;;;;;;;40.50;24.53;;;6.70;1.00;;;;;;5076341;28;20208;-86
2023/11/22 05:18:49;;;;;;;42.63;24.88;;;6.70;1.00;;;;;;5082008;28;20177;-87
2023/11/22 05:21:15;;;;;;;42.17;25.67;;;6.80;1.00;;;;;;5075496;28;20230;-87
2023/11/22 05:23:41;;;;;;;41.93;24.50;;;6.80;1.00;;;;;;5074790;28;20190;-87
2023/11/22 05:26:06;;;;;;;42.20;26.67;;;6.80;1.00;;;;;;5074526;28;20206;-87
2023/11/22 05:28:33;;;;;;;45.33;26.73;;;6.80;1.00;;;;;;5072585;28;20193;-88
2023/11/22 05:30:58;;;;;;;42.22;24.33;;;6.80;1.00;;;;;;5076929;28;20185;-88
2023/11/22 05:33:24;;;;;;;44.00;24.00;;;6.80;1.00;;;;;;5067047;28;20174;-88
2023/11/22 05:35:49;;;;;;;44.87;24.80;;;6.80;1.00;;;;;;5079469;28;20211;-87
2023/11/22 05:38:15;;;;;;;42.70;25.30;;;6.70;1.00;;;;;;5074778;28;20284;-87
2023/11/22 05:40:42;;;;;;;42.97;24.70;;;6.70;99.90;;;;;;5071696;28;20261;-88
2023/11/22 05:43:08;;;;;;;42.05;23.88;;;6.70;99.90;;;;;;5075459;28;20273;-86
2023/11/22 05:45:34;;;;;;;45.90;25.50;;;6.60;99.90;;;;;;5073924;28;20225;-87
2023/11/22 05:48:00;;;;;;;44.53;24.90;;;6.60;99.90;;;;;;5074854;28;20623;-86
2023/11/22 05:50:25;;;;;;;47.40;26.40;;;6.60;99.90;;;;;;5075455;28;20177;-87
2023/11/22 05:52:51;;;;;;;41.63;24.40;;;6.50;99.90;;;;;;5073494;28;20184;-87
2023/11/22 05:55:18;;;;;;;44.47;26.03;;;6.50;99.90;;;;;;5067729;28;21038;-85
2023/11/22 05:57:44;;;;;;;41.92;23.55;;;6.50;1.00;;;;;;5065708;28;20224;-87
2023/11/22 06:00:10;;;;;;;39.63;23.73;;;6.50;99.90;;;;;;5077060;28;20331;-87
2023/11/22 06:02:39;;;;;;;42.65;25.15;;;6.50;1.00;;;;;;5068538;28;20181;-87
2023/11/22 06:05:05;;;;;;;44.15;25.65;;;6.40;99.90;;;;;;5065938;28;20208;-88
2023/11/22 06:07:31;;;;;;;42.92;25.40;;;6.40;99.90;;;;;;5074277;28;20177;-87
2023/11/22 06:09:57;;;;;;;39.20;24.53;;;6.40;99.90;;;;;;5075259;28;20173;-87
2023/11/22 06:12:23;;;;;;;44.37;24.77;;;6.40;99.90;;;;;;5088071;28;20651;-86
2023/11/22 06:14:48;;;;;;;41.97;23.97;;;6.30;99.90;;;;;;5073397;28;20542;-87
2023/11/22 06:17:14;;;;;;;41.10;26.03;;;6.30;99.90;;;;;;5073745;28;20211;-87
2023/11/22 06:19:41;;;;;;;42.93;24.20;;;6.30;99.90;;;;;;5073906;28;20645;-85
2023/11/22 06:22:07;;;;;;;41.53;23.52;;;6.20;99.90;;;;;;5074501;28;20177;-87
2023/11/22 06:24:33;;;;;;;38.95;24.27;;;6.20;99.90;;;;;;5076926;28;20558;-87
2023/11/22 06:26:59;;;;;;;42.53;23.55;;;6.20;99.90;;;;;;5077733;28;20278;-87
2023/11/22 06:29:24;;;;;;;39.93;23.10;;;6.20;99.90;;;;;;5066511;28;20181;-87
2023/11/22 06:31:50;;;;;;;44.40;25.13;;;6.20;99.90;;;;;;5081890;28;20693;-86
2023/11/22 06:34:15;;;;;;;39.63;23.30;;;6.20;99.90;;;;;;5071972;28;20181;-87
2023/11/22 06:36:41;;;;;;;41.60;22.67;;;6.10;99.90;;;;;;5078011;28;20209;-87
2023/11/22 06:39:08;;;;;;;41.67;23.33;;;6.10;1.00;;;;;;5064557;28;20259;-86
2023/11/22 06:41:34;;;;;;;41.35;24.15;;;6.10;1.00;;;;;;5069937;28;20178;-85
2023/11/22 06:44:00;;;;;;;38.70;21.97;;;6.20;1.00;;;;;;5072032;28;20189;-86
2023/11/22 06:46:25;;;;;;;38.03;22.23;;;6.20;1.00;;;;;;5072529;28;20219;-87
2023/11/22 06:48:51;;;;;;;36.07;20.53;;;6.20;1.00;;;;;;5080658;28;20615;-86
2023/11/22 06:51:18;;;;;;;41.13;22.17;;;6.10;99.90;;;;;;5072916;28;20177;-87
2023/11/22 06:53:48;;;;;;;41.63;23.00;;;6.10;1.00;;;;;;5072243;28;20184;-86
2023/11/22 06:56:14;;;;;;;38.92;23.40;;;6.10;1.00;;;;;;5074502;28;20197;-85
2023/11/22 06:58:40;;;;;;;40.13;22.83;;;6.10;1.00;;;;;;5081452;28;20180;-87
2023/11/22 07:01:07;;;;;;;38.63;22.60;;;6.10;99.90;;;;;;5073581;28;20631;-85
2023/11/22 07:03:32;;;;;;;42.47;23.17;;;6.10;1.00;;;;;;5073061;28;20424;-86
2023/11/22 07:05:59;;;;;;;44.23;23.83;;;6.20;1.00;;;;;;5074834;28;20235;-87
2023/11/22 07:08:25;;;;;;;38.33;23.38;;;6.20;1.00;;;;;;5071431;28;20256;-85
2023/11/22 07:10:52;;;;;;;42.17;25.45;;;6.30;1.00;;;;;;5075415;28;20236;-85
2023/11/22 07:13:18;;;;;;;42.10;23.60;;;6.40;99.90;;;;;;5077399;28;20197;-85
2023/11/22 07:15:43;;;;;;;42.93;22.40;;;6.40;99.90;;;;;;5074587;28;20212;-86
2023/11/22 07:18:10;;;;;;;46.80;24.93;;;6.40;99.90;;;;;;5070995;28;20236;-86
2023/11/22 07:20:35;;;;;;;42.63;24.02;;;6.50;99.90;;;;;;5070077;28;20192;-86
2023/11/22 07:23:02;;;;;;;41.73;22.53;;;6.50;99.90;;;;;;5070879;28;20667;-85
2023/11/22 07:25:29;;;;;;;42.25;21.70;;;6.60;99.90;;;;;;5074911;28;20209;-84
2023/11/22 07:27:54;;;;;;;40.60;22.85;;;6.60;99.90;;;;;;5073323;28;20181;-87
2023/11/22 07:30:22;;;;;;;47.37;23.70;;;6.60;99.90;;;;;;5076356;28;20200;-87
2023/11/22 07:32:51;;;;;;;42.58;22.52;;;6.70;99.90;;;;;;5068992;28;20657;-87
2023/11/22 07:35:19;;;;;;;45.58;24.27;;;6.70;99.90;;;;;;5070189;28;20209;-85
2023/11/22 07:37:45;;;;;;;40.40;23.05;;;6.70;99.90;;;;;;5076647;28;20189;-85
2023/11/22 07:40:13;;;;;;;37.45;21.50;;;6.70;99.90;;;;;;5072760;28;20193;-86
2023/11/22 07:42:39;;;;;;;41.97;21.77;;;6.70;23.80;;;;;;5072131;28;20174;-87
2023/11/22 07:45:08;;;;;;;42.85;26.17;;;6.80;1.00;;;;;;5075222;28;20185;-86
2023/11/22 07:47:33;;;;;;;36.63;21.50;;;6.90;1.00;;;;;;5075589;28;20181;-85
2023/11/22 07:50:01;;;;;;;46.27;23.47;;;6.90;1.00;;;;;;5076019;28;20173;-85
2023/11/22 07:52:29;;;;;;;44.03;22.88;;;7.00;1.00;;;;;;5066831;28;20176;-86
2023/11/22 07:54:56;;;;;;;48.08;23.40;;;7.00;99.90;;;;;;5075289;28;20524;-87
2023/11/22 07:57:22;;;;;;;47.10;24.17;;;7.00;1.00;;;;;;5077048;28;20185;-87
2023/11/22 07:59:54;;;;;;;74.43;22.52;;;6.90;1.00;;;;;;5076061;28;20212;-86
2023/11/22 08:02:20;;;;;;;41.70;21.38;;;6.80;30.70;;;;;;5076801;28;20185;-87
2023/11/22 08:04:47;;;;;;;49.30;23.30;;;6.80;1.00;;;;;;5074228;28;20260;-88
2023/11/22 08:07:13;;;;;;;40.60;22.35;;;6.90;99.90;;;;;;5067797;28;20202;-86
2023/11/22 08:09:38;;;;;;;45.37;22.30;;;7.10;99.90;;;;;;5076029;28;20231;-86
2023/11/22 08:12:04;;;;;;;48.20;22.63;;;7.30;56.20;;;;;;5072676;28;20185;-89
2023/11/22 08:14:30;;;;;;;40.87;22.17;;;7.40;99.90;;;;;;5070383;28;20275;-87
2023/11/22 08:16:56;;;;;;;41.00;20.73;;;7.60;99.90;;;;;;5077176;28;20469;-88
2023/11/22 08:19:23;;;;;;;67.83;22.70;;;7.70;1.00;;;;;;5075957;28;20188;-86
2023/11/22 08:21:49;;;;;;;70.40;22.73;;;7.80;1.00;;;;;;5082397;28;20185;-87
2023/11/22 08:24:15;;;;;;;71.03;21.73;;;7.60;99.90;;;;;;5074072;28;20280;-87
2023/11/22 08:26:40;;;;;;;61.40;21.00;;;7.50;99.90;;;;;;5075198;28;20848;-90
2023/11/22 08:29:11;;;;;;;57.17;21.70;;;7.40;99.90;;;;;;5075856;28;20189;-88
2023/11/22 08:31:36;;;;;;;48.70;21.30;;;7.50;1.00;;;;;;5073753;28;20602;-86
2023/11/22 08:34:06;;;;;;;35.00;19.80;;;7.50;1.00;;;;;;5078270;28;20185;-87
2023/11/22 08:36:33;;;;;;;44.63;19.83;;;7.50;99.90;;;;;;5074697;28;20417;-87
2023/11/22 08:39:00;;;;;;;67.03;22.08;;;7.60;99.90;;;;;;5078197;28;20246;-87
2023/11/22 08:41:30;;;;;;;44.40;18.97;;;7.60;99.90;;;;;;5071369;28;20192;-87
2023/11/22 08:43:56;;;;;;;40.97;20.13;;;7.70;1.00;;;;;;5073126;28;20557;-90
2023/11/22 08:46:21;;;;;;;41.47;20.37;;;7.90;1.00;;;;;;5072171;28;20590;-88
2023/11/22 08:48:47;;;;;;;36.20;19.73;;;8.20;99.90;;;;;;5072434;28;20435;-85
2023/11/22 08:51:13;;;;;;;36.40;19.43;;;8.50;1.00;;;;;;5072579;28;20538;-87
2023/11/22 08:53:38;;;;;;;38.83;20.43;;;9.00;99.90;;;;;;5069472;28;20188;-88
2023/11/22 08:56:05;;;;;;;30.10;19.00;;;10.00;1.00;;;;;;5076596;28;20215;-88
2023/11/22 08:58:31;;;;;;;26.03;17.57;;;10.80;1.00;;;;;;5072375;28;20753;-87
2023/11/22 09:00:57;;;;;;;30.40;18.20;;;11.40;99.90;;;;;;5071513;28;20436;-88
2023/11/22 09:03:26;;;;;;;26.20;17.37;;;11.70;99.90;;;;;;5069338;28;20189;-87
2023/11/22 09:05:53;;;;;;;22.90;16.17;;;11.90;1.00;;;;;;5067914;28;20554;-87
2023/11/22 09:08:20;;;;;;;21.87;14.83;;;12.00;1.00;;;;;;5071034;28;20489;-86
2023/11/22 09:10:46;;;;;;;22.33;14.90;;;12.00;1.00;;;;;;5067845;28;20447;-86
2023/11/22 09:13:15;;;;;;;24.90;16.33;;;11.80;1.00;;;;;;5073974;28;20423;-86
2023/11/22 09:15:44;;;;;;;23.97;17.27;;;11.50;1.00;;;;;;5069097;28;20548;-87
2023/11/22 09:18:14;;;;;;;25.90;16.40;;;11.30;1.00;;;;;;5066263;28;20481;-87
2023/11/22 09:20:44;;;;;;;25.73;18.07;;;11.20;1.00;;;;;;5070423;28;20435;-87
2023/11/22 09:23:09;;;;;;;22.37;14.00;;;11.20;1.00;;;;;;5073345;28;20959;-88
2023/11/22 09:25:36;;;;;;;19.03;15.00;;;11.20;1.00;;;;;;5073882;28;20466;-86
2023/11/22 09:28:02;;;;;;;18.23;14.30;;;11.20;1.00;;;;;;5069860;28;20173;-90
2023/11/22 09:30:34;;;;;;;19.50;13.97;;;11.30;1.00;;;;;;5069561;28;20961;-87
2023/11/22 09:33:12;;;;;;;20.17;14.77;;;11.30;1.00;;;;;;5072677;28;20427;-86
2023/11/22 09:35:39;;;;;;;20.27;12.60;;;11.30;1.00;;;;;;5073373;28;20796;-88
2023/11/22 09:38:09;;;;;;;18.17;13.97;;;11.50;1.00;;;;;;5071033;28;20518;-86
2023/11/22 09:40:36;;;;;;;20.80;14.00;;;11.30;1.00;;;;;;5068954;28;20431;-86
2023/11/22 09:43:02;;;;;;;16.77;13.10;;;11.30;1.00;;;;;;5071776;28;20439;-86
2023/11/22 09:45:29;;;;;;;16.43;12.53;;;10.90;1.00;;;;;;5070375;28;20512;-86
2023/11/22 09:47:55;;;;;;;19.40;13.37;;;10.90;1.00;;;;;;5076590;28;20489;-86
2023/11/22 09:50:43;;;;;;;15.30;12.03;;;11.10;1.00;;;;;;5071487;28;20423;-86
2023/11/22 09:53:19;;;;;;;17.27;11.60;;;11.20;1.00;;;;;;5066485;28;20431;-86
2023/11/22 09:55:45;;;;;;;17.90;11.63;;;11.20;1.00;;;;;;5067252;28;20907;-86
2023/11/22 09:58:13;;;;;;;15.63;10.97;;;11.10;1.00;;;;;;5070384;28;20453;-87
2023/11/22 10:00:41;;;;;;;17.47;12.60;;;11.10;1.00;;;;;;5073741;28;20960;-86
2023/11/22 10:03:07;;;;;;;14.70;11.10;;;10.90;1.00;;;;;;5073610;28;20415;-86
2023/11/22 10:05:33;;;;;;;14.50;11.53;;;10.50;1.00;;;;;;5075456;28;20463;-86
2023/11/22 10:08:00;;;;;;;18.20;11.80;;;10.60;1.00;;;;;;5073270;28;20536;-87
2023/11/22 10:10:26;;;;;;;14.60;11.50;;;10.70;1.00;;;;;;5076017;28;21021;-86
2023/11/22 10:12:55;;;;;;;13.50;11.37;;;10.80;1.00;;;;;;5072286;28;20435;-85
2023/11/22 10:15:22;;;;;;;14.67;11.00;;;11.00;1.00;;;;;;5071961;28;20481;-86
2023/11/22 10:17:58;;;;;;;14.10;10.87;;;11.10;1.00;;;;;;5072461;28;20514;-86
2023/11/22 10:20:40;;;;;;;12.13;9.83;;;11.30;1.00;;;;;;5072624;28;20526;-86
2023/11/22 10:23:10;;;;;;;15.13;11.07;;;11.40;1.00;;;;;;5074600;28;20877;-86
2023/11/22 10:25:37;;;;;;;14.70;11.30;;;11.50;1.00;;;;;;5064336;28;20893;-87
2023/11/22 10:28:02;;;;;;;16.57;11.60;;;11.70;1.00;;;;;;5070999;28;20447;-89
2023/11/22 10:30:28;;;;;;;15.97;11.33;;;11.80;1.00;;;;;;5072326;28;20438;-87
2023/11/22 10:32:55;;;;;;;13.40;9.57;;;11.90;1.00;;;;;;5074709;28;20177;-87
2023/11/22 10:35:22;;;;;;;11.03;9.00;;;11.90;99.90;;;;;;5074804;28;20239;-86
2023/11/22 10:37:48;;;;;;;13.20;10.07;;;12.10;99.90;;;;;;5074463;28;20458;-87
2023/11/22 10:40:13;;;;;;;12.43;9.00;;;12.30;99.90;;;;;;5069638;28;20462;-87
2023/11/22 10:42:45;;;;;;;25.87;16.77;;;12.40;99.90;;;;;;5072742;28;20435;-86
2023/11/22 10:45:13;;;;;;;22.63;16.90;;;12.40;99.90;;;;;;5064178;28;20202;-86
2023/11/22 10:47:41;;;;;;;22.83;16.60;;;12.20;99.90;;;;;;5072859;28;20442;-87
2023/11/22 10:50:08;;;;;;;21.90;16.73;;;12.20;99.90;;;;;;5068993;28;20431;-87
2023/11/22 10:52:38;;;;;;;24.03;17.67;;;12.30;99.90;;;;;;5068429;28;20711;-86
2023/11/22 10:55:05;;;;;;;26.37;17.10;;;12.30;99.90;;;;;;5067661;28;20842;-86
2023/11/22 10:57:33;;;;;;;23.07;17.23;;;12.30;99.90;;;;;;5066323;28;20430;-87
2023/11/22 11:00:05;;;;;;;26.10;17.03;;;12.30;99.90;;;;;;5073862;28;20439;-86
2023/11/22 11:02:35;;;;;;;19.83;15.07;;;12.40;99.90;;;;;;5069641;28;20944;-86
2023/11/22 11:05:12;;;;;;;20.57;15.53;;;12.50;99.90;;;;;;5065519;28;20477;-85
2023/11/22 11:07:41;;;;;;;22.17;15.80;;;12.80;99.90;;;;;;5072410;28;20511;-86
2023/11/22 11:10:08;;;;;;;23.77;16.67;;;13.00;99.90;;;;;;5072129;28;20432;-86
2023/11/22 11:12:33;;;;;;;22.23;16.27;;;13.30;99.90;;;;;;5066674;28;20432;-86
2023/11/22 11:14:59;;;;;;;19.30;14.60;;;14.10;99.90;;;;;;5069176;28;20458;-86
2023/11/22 11:17:25;;;;;;;19.77;14.70;;;14.90;99.90;;;;;;5078410;28;20203;-87
2023/11/22 11:19:51;;;;;;;18.33;14.30;;;15.80;99.90;;;;;;5067500;28;20459;-86
2023/11/22 11:22:19;;;;;;;19.27;14.03;;;16.70;99.90;;;;;;5077677;28;20326;-86
2023/11/22 11:24:47;;;;;;;17.30;14.23;;;17.30;99.90;;;;;;5074401;28;20220;-85
2023/11/22 11:27:14;;;;;;;18.80;14.00;;;17.70;99.90;;;;;;5077349;28;20547;-86
2023/11/22 11:29:43;;;;;;;14.73;13.13;;;18.00;99.90;;;;;;5078401;28;20435;-87
2023/11/22 11:32:32;;;;;;;16.33;13.40;;;18.00;99.90;;;;;;5076862;28;20437;-85
2023/11/22 11:35:00;;;;;;;17.80;14.60;;;17.90;99.90;;;;;;5072653;28;20436;-87
2023/11/22 11:37:29;;;;;;;18.70;14.10;;;17.60;99.90;;;;;;5078506;28;20419;-87
2023/11/22 11:39:55;;;;;;;21.90;14.77;;;17.20;99.90;;;;;;5076198;28;20940;-87
2023/11/22 11:42:20;;;;;;;18.17;13.87;;;16.70;99.90;;;;;;5072803;28;20442;-86
2023/11/22 11:45:06;;;;;;;15.57;12.43;;;16.20;99.90;;;;;;5076515;28;20174;-86
2023/11/22 11:47:33;;;;;;;16.93;11.80;;;15.80;99.90;;;;;;5079752;28;20324;-84
2023/11/22 11:49:59;;;;;;;14.87;12.30;;;15.50;99.90;;;;;;5070903;28;20423;-87
2023/11/22 11:52:26;;;;;;;20.50;12.93;;;15.10;99.90;;;;;;5066685;28;20426;-87
2023/11/22 11:54:51;;;;;;;14.53;12.30;;;15.00;99.90;;;;;;5068253;28;20427;-88
2023/11/22 11:57:17;;;;;;;17.53;11.90;;;15.00;99.90;;;;;;5072250;28;20492;-87
2023/11/22 11:59:42;;;;;;;13.57;10.63;;;15.00;99.90;;;;;;5067393;28;20557;-86
2023/11/22 12:02:08;;;;;;;12.10;10.27;;;15.20;99.90;;;;;;5068954;28;20197;-86
2023/11/22 12:04:34;;;;;;;13.37;11.53;;;15.40;99.90;;;;;;5064763;28;20189;-87
2023/11/22 12:06:59;;;;;;;15.57;12.67;;;15.70;99.90;;;;;;5065480;28;20308;-87
2023/11/22 12:09:27;;;;;;;12.83;10.60;;;16.00;99.90;;;;;;5063935;28;20203;-84
2023/11/22 12:11:53;;;;;;;14.90;10.60;;;16.20;99.90;;;;;;5063274;28;20178;-87
2023/11/22 12:14:20;;;;;;;15.00;11.47;;;16.20;99.90;;;;;;5062846;28;20443;-86
2023/11/22 12:16:48;;;;;;;15.30;12.40;;;16.10;99.90;;;;;;5059734;28;20277;-87
2023/11/22 12:19:28;;;;;;;14.57;11.70;;;15.80;99.90;;;;;;5064641;28;20450;-86
2023/11/22 12:21:54;;;;;;;15.50;10.90;;;15.40;99.90;;;;;;5068909;28;20471;-89
2023/11/22 12:24:20;;;;;;;17.80;10.43;;;15.10;99.90;;;;;;5068316;28;20445;-86
2023/11/22 12:26:46;;;;;;;10.13;8.53;;;14.60;99.90;;;;;;5069385;28;20478;-84
2023/11/22 12:29:18;;;;;;;12.23;8.83;;;14.40;99.90;;;;;;5066624;28;20440;-85
2023/11/22 12:31:46;;;;;;;14.13;10.40;;;14.10;99.90;;;;;;5070099;28;20471;-84
2023/11/22 12:34:13;;;;;;;13.00;9.70;;;14.00;99.90;;;;;;5069000;28;20520;-86
2023/11/22 12:36:40;;;;;;;11.63;9.57;;;14.10;99.90;;;;;;5062458;28;20455;-85
2023/11/22 12:39:16;;;;;;;12.07;9.67;;;14.50;99.90;;;;;;5065391;28;20443;-86